createdAt,value
2023-04-09T00:01:11.313Z,4.37
2023-04-09T00:03:38.931Z,4.35
2023-04-09T00:06:05.846Z,4.33
2023-04-09T00:08:32.495Z,4.21
2023-04-09T00:10:59.633Z,4.20
2023-04-09T00:13:38.624Z,4.26
2023-04-09T00:16:06.384Z,4.24
2023-04-09T00:18:33.001Z,4.17
2023-04-09T00:20:59.534Z,4.22
2023-04-09T00:23:26.086Z,4.21
2023-04-09T00:25:52.643Z,4.13
2023-04-09T00:28:19.401Z,4.18
2023-04-09T00:30:45.976Z,4.16
2023-04-09T00:33:12.633Z,4.20
2023-04-09T00:35:39.127Z,4.24
2023-04-09T00:38:06.220Z,4.18
2023-04-09T00:40:33.064Z,4.13
2023-04-09T00:42:59.579Z,4.07
2023-04-09T00:45:26.068Z,4.16
2023-04-09T00:47:53.447Z,4.13
2023-04-09T00:50:20.506Z,4.13
2023-04-09T00:52:49.674Z,3.99
2023-04-09T00:55:17.979Z,4.02
2023-04-09T00:57:44.469Z,4.06
2023-04-09T01:00:13.075Z,4.04
2023-04-09T01:02:40.950Z,3.90
2023-04-09T01:05:08.239Z,4.04
2023-04-09T01:07:47.899Z,4.02
2023-04-09T01:10:37.684Z,4.02
2023-04-09T01:13:12.588Z,4.02
2023-04-09T01:15:56.116Z,3.96
2023-04-09T01:18:44.251Z,4.01
2023-04-09T01:21:15.195Z,3.96
2023-04-09T01:23:59.768Z,3.48
2023-04-09T01:27:04.271Z,3.78
2023-04-09T01:29:47.748Z,3.78
2023-04-09T01:32:18.604Z,3.49
2023-04-09T01:34:47.870Z,3.71
2023-04-09T01:37:16.151Z,3.59
2023-04-09T01:39:42.861Z,3.75
2023-04-09T01:42:12.214Z,2.87
2023-04-09T01:44:41.097Z,3.61
2023-04-09T01:47:09.153Z,3.68
2023-04-09T01:49:37.355Z,3.65
2023-04-09T01:52:04.222Z,3.64
2023-04-09T01:54:30.684Z,3.50
2023-04-09T01:56:57.709Z,3.59
2023-04-09T01:59:24.218Z,3.35
2023-04-09T02:01:59.908Z,3.62
2023-04-09T02:04:34.368Z,3.51
2023-04-09T02:07:03.753Z,3.60
2023-04-09T02:09:33.849Z,3.40
2023-04-09T02:12:04.121Z,3.58
2023-04-09T02:14:32.809Z,3.24
2023-04-09T02:17:01.024Z,3.44
2023-04-09T02:19:44.585Z,3.17
2023-04-09T02:22:12.058Z,3.37
2023-04-09T02:24:40.325Z,3.51
2023-04-09T02:27:07.384Z,3.48
2023-04-09T02:29:34.285Z,3.54
2023-04-09T02:32:01.152Z,3.41
2023-04-09T02:34:28.209Z,3.46
2023-04-09T02:36:55.122Z,3.07
2023-04-09T02:39:21.605Z,3.40
2023-04-09T02:41:48.509Z,3.32
2023-04-09T02:44:14.906Z,3.41
2023-04-09T02:46:42.519Z,3.40
2023-04-09T02:49:09.166Z,3.11
2023-04-09T02:51:36.364Z,3.31
2023-04-09T02:54:04.018Z,3.21
2023-04-09T02:56:30.694Z,3.04
2023-04-09T02:58:57.160Z,3.05
2023-04-09T03:01:23.831Z,2.60
2023-04-09T03:03:50.712Z,2.83
2023-04-09T03:06:18.465Z,2.40
2023-04-09T03:08:45.253Z,2.35
2023-04-09T03:11:11.765Z,2.35
2023-04-09T03:13:38.129Z,2.41
2023-04-09T03:16:05.019Z,2.25
2023-04-09T03:18:31.480Z,2.18
2023-04-09T03:20:58.068Z,1.73
2023-04-09T03:23:26.024Z,2.08
2023-04-09T03:26:05.366Z,2.16
2023-04-09T03:28:38.654Z,1.84
2023-04-09T03:31:05.396Z,2.03
2023-04-09T03:33:36.257Z,1.92
2023-04-09T03:36:02.934Z,1.90
2023-04-09T03:38:40.587Z,1.61
2023-04-09T03:41:14.189Z,1.90
2023-04-09T03:43:41.528Z,1.37
2023-04-09T03:46:15.692Z,1.85
2023-04-09T03:48:45.822Z,1.83
2023-04-09T03:51:15.608Z,1.88
2023-04-09T03:53:48.152Z,1.71
2023-04-09T03:56:14.678Z,1.58
2023-04-09T03:58:41.784Z,1.57
2023-04-09T04:01:10.042Z,1.70
2023-04-09T04:03:41.853Z,1.24
2023-04-09T04:06:21.965Z,1.30
2023-04-09T04:09:03.425Z,1.03
2023-04-09T04:11:40.519Z,1.38
2023-04-09T04:14:07.066Z,1.27
2023-04-09T04:16:33.922Z,1.32
2023-04-09T04:19:02.477Z,1.20
2023-04-09T04:21:31.580Z,1.37
2023-04-09T04:24:01.416Z,1.41
2023-04-09T04:26:29.667Z,1.58
2023-04-09T04:28:56.507Z,1.63
2023-04-09T04:31:34.595Z,1.45
2023-04-09T04:34:02.498Z,1.45
2023-04-09T04:36:29.772Z,1.39
2023-04-09T04:38:56.126Z,1.62
2023-04-09T04:41:30.557Z,1.33
2023-04-09T04:44:08.705Z,1.42
2023-04-09T04:46:35.669Z,1.21
2023-04-09T04:49:02.276Z,1.67
2023-04-09T04:51:31.831Z,1.15
2023-04-09T04:54:04.414Z,1.26
2023-04-09T04:56:31.319Z,1.68
2023-04-09T04:59:18.378Z,1.62
2023-04-09T05:01:56.298Z,1.71
2023-04-09T05:04:23.749Z,1.46
2023-04-09T05:06:50.487Z,1.80
2023-04-09T05:09:22.467Z,1.67
2023-04-09T05:12:05.931Z,1.76
2023-04-09T05:14:32.896Z,1.77
2023-04-09T05:16:59.553Z,1.98
2023-04-09T05:19:33.102Z,1.92
2023-04-09T05:22:02.731Z,2.19
2023-04-09T05:24:29.567Z,2.16
2023-04-09T05:26:56.145Z,2.13
2023-04-09T05:29:23.021Z,2.34
2023-04-09T05:31:49.451Z,2.75
2023-04-09T05:34:27.588Z,2.72
2023-04-09T05:36:55.941Z,2.65
2023-04-09T05:39:23.722Z,2.33
2023-04-09T05:41:52.462Z,2.54
2023-04-09T05:44:30.772Z,2.65
2023-04-09T05:47:05.873Z,2.89
2023-04-09T05:49:40.655Z,3.25
2023-04-09T05:52:11.411Z,3.46
2023-04-09T05:54:38.060Z,3.21
2023-04-09T05:57:07.202Z,3.31
2023-04-09T05:59:36.835Z,3.71
2023-04-09T06:02:03.328Z,3.59
2023-04-09T06:04:29.894Z,4.02
2023-04-09T06:07:00.092Z,4.53
2023-04-09T06:09:27.872Z,4.56
2023-04-09T06:11:54.365Z,5.29
2023-04-09T06:14:21.013Z,5.40
2023-04-09T06:16:47.398Z,5.57
2023-04-09T06:19:16.300Z,5.71
2023-04-09T06:21:42.799Z,5.20
2023-04-09T06:24:09.188Z,4.67
2023-04-09T06:26:35.888Z,5.65
2023-04-09T06:29:02.859Z,4.93
2023-04-09T06:31:29.392Z,5.82
2023-04-09T06:33:56.144Z,6.48
2023-04-09T06:36:22.967Z,5.21
2023-04-09T06:38:49.388Z,6.42
2023-04-09T06:41:16.165Z,7.80
2023-04-09T06:43:42.695Z,7.96
2023-04-09T06:46:09.321Z,8.34
2023-04-09T06:48:36.147Z,8.23
2023-04-09T06:51:02.637Z,8.31
2023-04-09T06:53:29.119Z,7.76
2023-04-09T06:55:57.132Z,7.94
2023-04-09T06:58:23.846Z,7.55
2023-04-09T07:00:50.283Z,8.52
2023-04-09T07:03:16.973Z,7.60
2023-04-09T07:05:43.574Z,7.42
2023-04-09T07:08:10.166Z,8.06
2023-04-09T07:10:36.837Z,8.56
2023-04-09T07:13:03.380Z,8.89
2023-04-09T07:15:30.139Z,8.16
2023-04-09T07:17:57.738Z,8.81
2023-04-09T07:20:24.482Z,8.56
2023-04-09T07:22:50.881Z,8.78
2023-04-09T07:25:17.431Z,8.47
2023-04-09T07:27:44.530Z,8.44
2023-04-09T07:30:11.269Z,9.09
2023-04-09T07:32:40.626Z,8.77
2023-04-09T07:35:09.618Z,8.84
2023-04-09T07:37:36.453Z,8.67
2023-04-09T07:40:04.081Z,8.95
2023-04-09T07:42:30.748Z,9.45
2023-04-09T07:44:57.235Z,9.20
2023-04-09T07:47:23.837Z,9.10
2023-04-09T07:49:50.482Z,8.47
2023-04-09T07:52:16.881Z,8.42
2023-04-09T07:54:43.330Z,8.69
2023-04-09T07:57:09.801Z,9.08
2023-04-09T07:59:36.528Z,9.36
2023-04-09T08:02:03.511Z,9.29
2023-04-09T08:04:30.246Z,9.27
2023-04-09T08:06:56.837Z,8.88
2023-04-09T08:09:23.392Z,9.42
2023-04-09T08:11:50.349Z,9.65
2023-04-09T08:14:17.871Z,9.84
2023-04-09T08:16:47.231Z,10.00
2023-04-09T08:19:16.314Z,9.80
2023-04-09T08:21:43.753Z,10.26
2023-04-09T08:24:11.768Z,10.51
2023-04-09T08:26:39.099Z,10.36
2023-04-09T08:29:06.150Z,10.56
2023-04-09T08:31:32.775Z,10.93
2023-04-09T08:33:59.367Z,10.61
2023-04-09T08:36:26.414Z,10.38
2023-04-09T08:38:55.844Z,10.62
2023-04-09T08:41:28.636Z,10.81
2023-04-09T08:43:58.868Z,10.01
2023-04-09T08:46:26.510Z,10.31
2023-04-09T08:48:54.043Z,10.32
2023-04-09T08:51:22.481Z,9.71
2023-04-09T08:53:59.597Z,10.65
2023-04-09T08:56:27.758Z,9.52
2023-04-09T08:58:56.497Z,9.88
2023-04-09T09:01:28.173Z,10.28
2023-04-09T09:04:01.875Z,11.05
2023-04-09T09:06:32.631Z,11.17
2023-04-09T09:09:10.302Z,11.97
2023-04-09T09:11:39.915Z,11.81
2023-04-09T09:14:08.824Z,11.42
2023-04-09T09:16:40.282Z,11.66
2023-04-09T09:19:07.154Z,11.26
2023-04-09T09:21:34.342Z,12.12
2023-04-09T09:24:00.822Z,11.83
2023-04-09T09:26:29.324Z,11.69
2023-04-09T09:29:00.445Z,12.06
2023-04-09T09:31:27.569Z,11.79
2023-04-09T09:33:54.275Z,11.95
2023-04-09T09:36:34.553Z,11.97
2023-04-09T09:39:10.450Z,12.64
2023-04-09T09:41:37.864Z,12.37
2023-04-09T09:44:07.183Z,12.38
2023-04-09T09:46:36.101Z,12.52
2023-04-09T09:49:02.822Z,11.56
2023-04-09T09:51:31.842Z,11.19
2023-04-09T09:53:59.209Z,11.10
2023-04-09T09:56:32.667Z,11.76
2023-04-09T09:59:18.288Z,11.83
2023-04-09T10:01:46.166Z,11.92
2023-04-09T10:04:16.486Z,11.61
2023-04-09T10:06:44.332Z,11.23
2023-04-09T10:09:11.885Z,10.96
2023-04-09T10:11:42.564Z,11.23
2023-04-09T10:14:10.223Z,11.74
2023-04-09T10:16:37.189Z,11.23
2023-04-09T10:19:04.646Z,11.26
2023-04-09T10:21:53.664Z,10.73
2023-04-09T10:24:20.591Z,11.73
2023-04-09T10:26:47.126Z,11.14
2023-04-09T10:29:14.825Z,11.26
2023-04-09T10:31:48.563Z,11.39
2023-04-09T10:34:16.412Z,11.53
2023-04-09T10:36:52.983Z,12.00
2023-04-09T10:39:19.653Z,11.44
2023-04-09T10:41:48.772Z,11.22
2023-04-09T10:44:27.094Z,11.12
2023-04-09T10:46:55.485Z,11.71
2023-04-09T10:49:27.001Z,12.41
2023-04-09T10:52:12.312Z,11.62
2023-04-09T10:54:46.735Z,11.97
2023-04-09T10:57:15.480Z,12.30
2023-04-09T10:59:55.207Z,13.12
2023-04-09T11:02:40.315Z,13.26
2023-04-09T11:05:32.328Z,13.33
2023-04-09T11:08:05.980Z,13.62
2023-04-09T11:10:33.413Z,13.27
2023-04-09T11:13:00.363Z,13.50
2023-04-09T11:15:27.182Z,13.79
2023-04-09T11:17:54.379Z,13.53
2023-04-09T11:20:23.503Z,13.14
2023-04-09T11:22:55.397Z,12.24
2023-04-09T11:25:24.690Z,11.90
2023-04-09T11:27:51.570Z,11.74
2023-04-09T11:30:18.360Z,12.10
2023-04-09T11:32:45.798Z,11.70
2023-04-09T11:35:17.340Z,11.78
2023-04-09T11:37:45.064Z,11.40
2023-04-09T11:40:22.736Z,11.74
2023-04-09T11:42:54.669Z,11.91
2023-04-09T11:45:24.359Z,12.35
2023-04-09T11:47:51.565Z,12.18
2023-04-09T11:50:19.310Z,12.43
2023-04-09T11:52:46.169Z,12.90
2023-04-09T11:55:23.308Z,13.48
2023-04-09T11:57:51.136Z,12.65
2023-04-09T12:00:18.145Z,12.73
2023-04-09T12:02:46.891Z,13.24
2023-04-09T12:05:22.433Z,13.45
2023-04-09T12:07:55.381Z,13.30
2023-04-09T12:10:30.304Z,13.28
2023-04-09T12:13:03.104Z,13.76
2023-04-09T12:15:34.937Z,13.08
2023-04-09T12:18:03.462Z,13.21
2023-04-09T12:20:35.824Z,13.15
2023-04-09T12:23:04.286Z,12.62
2023-04-09T12:25:32.545Z,12.47
2023-04-09T12:27:59.512Z,12.69
2023-04-09T12:30:26.461Z,13.12
2023-04-09T12:32:54.068Z,13.81
2023-04-09T12:35:22.042Z,12.69
2023-04-09T12:37:49.256Z,13.09
2023-04-09T12:40:16.456Z,13.31
2023-04-09T12:42:44.640Z,12.79
2023-04-09T12:45:12.655Z,12.51
2023-04-09T12:47:39.916Z,12.65
2023-04-09T12:50:08.367Z,12.27
2023-04-09T12:52:34.878Z,12.33
2023-04-09T12:55:02.272Z,12.48
2023-04-09T12:57:29.279Z,12.62
2023-04-09T12:59:55.923Z,12.46
2023-04-09T13:02:22.729Z,12.30
2023-04-09T13:04:50.136Z,11.22
2023-04-09T13:07:18.005Z,11.90
2023-04-09T13:09:50.244Z,11.61
2023-04-09T13:12:17.322Z,11.75
2023-04-09T13:14:46.481Z,11.87
2023-04-09T13:17:13.209Z,12.93
2023-04-09T13:19:42.003Z,13.01
2023-04-09T13:22:09.156Z,12.69
2023-04-09T13:24:36.183Z,13.26
2023-04-09T13:27:06.952Z,13.73
2023-04-09T13:29:33.431Z,13.55
2023-04-09T13:32:02.556Z,12.52
2023-04-09T13:34:29.065Z,13.00
2023-04-09T13:36:55.499Z,13.32
2023-04-09T13:39:22.034Z,13.19
2023-04-09T13:41:48.490Z,12.46
2023-04-09T13:44:14.984Z,12.38
2023-04-09T13:46:41.471Z,12.37
2023-04-09T13:49:07.976Z,12.59
2023-04-09T13:51:34.515Z,12.22
2023-04-09T13:54:01.226Z,13.22
2023-04-09T13:56:28.929Z,11.62
2023-04-09T13:58:55.464Z,12.11
2023-04-09T14:01:22.320Z,11.70
2023-04-09T14:03:48.924Z,12.05
2023-04-09T14:06:15.436Z,12.38
2023-04-09T14:08:41.928Z,12.42
2023-04-09T14:11:08.422Z,13.40
2023-04-09T14:13:34.890Z,13.52
2023-04-09T14:16:01.637Z,13.64
2023-04-09T14:18:28.156Z,13.21
2023-04-09T14:20:54.677Z,12.79
2023-04-09T14:23:21.093Z,12.48
2023-04-09T14:25:47.605Z,12.35
2023-04-09T14:28:14.056Z,12.15
2023-04-09T14:30:40.524Z,12.12
2023-04-09T14:33:07.198Z,12.18
2023-04-09T14:35:33.780Z,11.96
2023-04-09T14:38:04.241Z,11.88
2023-04-09T14:40:31.983Z,12.14
2023-04-09T14:42:59.595Z,11.66
2023-04-09T14:45:26.464Z,12.20
2023-04-09T14:47:53.761Z,12.57
2023-04-09T14:50:20.544Z,12.72
2023-04-09T14:52:48.159Z,12.84
2023-04-09T14:55:15.213Z,12.92
2023-04-09T14:57:42.367Z,12.53
2023-04-09T15:00:11.218Z,12.76
2023-04-09T15:02:41.545Z,12.47
2023-04-09T15:05:08.745Z,12.55
2023-04-09T15:07:35.280Z,12.68
2023-04-09T15:10:01.937Z,12.47
2023-04-09T15:12:30.369Z,12.25
2023-04-09T15:14:57.345Z,12.00
2023-04-09T15:17:24.583Z,12.41
2023-04-09T15:19:52.847Z,12.25
2023-04-09T15:22:19.705Z,12.32
2023-04-09T15:24:46.392Z,11.93
2023-04-09T15:27:13.014Z,12.13
2023-04-09T15:29:39.539Z,12.02
2023-04-09T15:32:06.043Z,12.05
2023-04-09T15:34:32.605Z,11.98
2023-04-09T15:36:59.069Z,12.30
2023-04-09T15:39:28.193Z,11.90
2023-04-09T15:41:58.598Z,12.16
2023-04-09T15:44:26.007Z,12.26
2023-04-09T15:46:52.521Z,12.24
2023-04-09T15:49:19.628Z,12.36
2023-04-09T15:51:46.475Z,12.38
2023-04-09T15:54:13.156Z,12.10
2023-04-09T15:56:40.360Z,12.47
2023-04-09T15:59:08.304Z,12.73
2023-04-09T16:01:36.381Z,12.24
2023-04-09T16:04:04.786Z,11.87
2023-04-09T16:06:32.377Z,11.86
2023-04-09T16:08:58.882Z,11.70
2023-04-09T16:11:26.000Z,11.26
2023-04-09T16:13:52.573Z,11.26
2023-04-09T16:16:19.255Z,11.02
2023-04-09T16:18:45.947Z,11.04
2023-04-09T16:21:12.577Z,10.92
2023-04-09T16:23:38.960Z,11.02
2023-04-09T16:26:05.960Z,10.81
2023-04-09T16:28:32.527Z,10.83
2023-04-09T16:30:59.561Z,10.82
2023-04-09T16:33:26.299Z,10.78
2023-04-09T16:35:53.119Z,10.79
2023-04-09T16:38:19.598Z,10.74
2023-04-09T16:40:46.316Z,11.05
2023-04-09T16:43:12.850Z,10.65
2023-04-09T16:45:39.244Z,11.16
2023-04-09T16:48:10.818Z,10.39
2023-04-09T16:50:38.615Z,10.14
2023-04-09T16:53:05.556Z,10.16
2023-04-09T16:55:32.017Z,9.97
2023-04-09T16:57:58.828Z,10.45
2023-04-09T17:00:25.592Z,10.12
2023-04-09T17:02:52.319Z,10.10
2023-04-09T17:05:19.188Z,9.91
2023-04-09T17:07:45.648Z,9.79
2023-04-09T17:10:12.210Z,9.56
2023-04-09T17:12:38.867Z,9.66
2023-04-09T17:15:05.775Z,9.81
2023-04-09T17:17:33.576Z,9.15
2023-04-09T17:20:02.705Z,9.31
2023-04-09T17:22:29.227Z,9.21
2023-04-09T17:24:55.785Z,9.14
2023-04-09T17:27:22.296Z,9.06
2023-04-09T17:29:48.726Z,9.20
2023-04-09T17:32:15.440Z,8.81
2023-04-09T17:34:42.075Z,8.48
2023-04-09T17:37:08.537Z,8.52
2023-04-09T17:39:35.774Z,8.23
2023-04-09T17:42:03.639Z,8.11
2023-04-09T17:44:33.464Z,8.21
2023-04-09T17:47:00.000Z,7.70
2023-04-09T17:49:32.442Z,7.87
2023-04-09T17:51:59.296Z,7.62
2023-04-09T17:54:25.800Z,7.49
2023-04-09T17:56:52.392Z,7.62
2023-04-09T17:59:18.895Z,7.39
2023-04-09T18:01:45.430Z,7.42
2023-04-09T18:04:12.191Z,7.19
2023-04-09T18:06:39.000Z,6.97
2023-04-09T18:09:05.430Z,7.14
2023-04-09T18:11:31.970Z,6.64
2023-04-09T18:13:58.336Z,6.96
2023-04-09T18:16:24.849Z,6.59
2023-04-09T18:18:51.622Z,6.84
2023-04-09T18:21:18.508Z,6.63
2023-04-09T18:23:44.954Z,6.23
2023-04-09T18:26:11.454Z,6.11
2023-04-09T18:28:38.017Z,6.52
2023-04-09T18:31:04.515Z,6.43
2023-04-09T18:33:31.561Z,6.11
2023-04-09T18:36:00.649Z,5.85
2023-04-09T18:38:31.616Z,5.99
2023-04-09T18:40:58.254Z,6.24
2023-04-09T18:43:25.430Z,6.16
2023-04-09T18:45:52.406Z,6.11
2023-04-09T18:48:18.861Z,6.08
2023-04-09T18:50:45.676Z,5.48
2023-04-09T18:53:12.181Z,5.93
2023-04-09T18:55:38.626Z,5.94
2023-04-09T18:58:08.671Z,5.72
2023-04-09T19:00:35.805Z,5.60
2023-04-09T19:03:02.408Z,5.33
2023-04-09T19:05:33.024Z,5.63
2023-04-09T19:08:01.236Z,5.52
2023-04-09T19:10:28.711Z,4.63
2023-04-09T19:12:55.538Z,5.44
2023-04-09T19:15:23.971Z,5.13
2023-04-09T19:17:50.631Z,5.25
2023-04-09T19:20:17.489Z,5.34
2023-04-09T19:22:48.648Z,5.02
2023-04-09T19:25:18.604Z,5.23
2023-04-09T19:27:45.787Z,4.73
2023-04-09T19:30:13.049Z,5.13
2023-04-09T19:32:40.038Z,4.74
2023-04-09T19:35:07.452Z,5.04
2023-04-09T19:37:34.729Z,4.74
2023-04-09T19:40:04.409Z,4.79
2023-04-09T19:42:32.808Z,4.85
2023-04-09T19:45:00.218Z,4.75
2023-04-09T19:47:28.124Z,4.84
2023-04-09T19:49:54.774Z,4.54
2023-04-09T19:52:21.741Z,4.85
2023-04-09T19:54:53.135Z,4.64
2023-04-09T19:57:19.583Z,4.69
2023-04-09T19:59:48.503Z,4.68
2023-04-09T20:02:16.307Z,4.34
2023-04-09T20:04:43.085Z,4.46
2023-04-09T20:07:09.584Z,4.25
2023-04-09T20:09:36.845Z,4.53
2023-04-09T20:12:06.457Z,4.36
2023-04-09T20:14:32.985Z,4.39
2023-04-09T20:16:59.460Z,4.47
2023-04-09T20:19:26.572Z,4.00
2023-04-09T20:21:54.743Z,4.32
2023-04-09T20:24:22.340Z,3.84
2023-04-09T20:26:48.820Z,2.60
2023-04-09T20:29:15.285Z,4.21
2023-04-09T20:31:41.959Z,3.77
2023-04-09T20:34:08.582Z,3.87
2023-04-09T20:36:37.552Z,3.72
2023-04-09T20:39:04.221Z,3.61
2023-04-09T20:41:30.766Z,4.00
2023-04-09T20:43:57.262Z,3.81
2023-04-09T20:46:23.697Z,3.96
2023-04-09T20:48:50.250Z,3.78
2023-04-09T20:51:16.720Z,3.91
2023-04-09T20:53:43.176Z,3.71
2023-04-09T20:56:09.642Z,3.80
2023-04-09T20:58:36.698Z,3.49
2023-04-09T21:01:06.448Z,3.68
2023-04-09T21:03:38.139Z,3.72
2023-04-09T21:06:05.345Z,3.60
2023-04-09T21:08:32.208Z,3.38
2023-04-09T21:10:58.682Z,3.56
2023-04-09T21:13:25.433Z,3.53
2023-04-09T21:15:51.868Z,3.38
2023-04-09T21:18:18.369Z,3.39
2023-04-09T21:20:49.294Z,3.22
2023-04-09T21:23:16.187Z,3.36
2023-04-09T21:25:42.648Z,3.12
2023-04-09T21:28:09.248Z,3.33
2023-04-09T21:30:37.662Z,3.06
2023-04-09T21:33:08.910Z,3.19
2023-04-09T21:35:36.550Z,3.11
2023-04-09T21:38:03.593Z,2.93
2023-04-09T21:40:30.822Z,2.86
2023-04-09T21:42:57.884Z,2.65
2023-04-09T21:45:24.649Z,2.98
2023-04-09T21:47:51.714Z,2.85
2023-04-09T21:50:18.504Z,2.90
2023-04-09T21:52:46.278Z,2.50
2023-04-09T21:55:13.866Z,2.92
2023-04-09T21:57:40.303Z,2.58
2023-04-09T22:00:11.097Z,2.93
2023-04-09T22:18:12.242Z,2.27
2023-04-09T22:20:38.741Z,2.38
2023-04-09T22:23:05.357Z,2.46
2023-04-09T22:25:34.946Z,2.48
2023-04-09T22:28:01.450Z,2.48
2023-04-09T22:30:28.153Z,2.46
2023-04-09T22:32:54.748Z,2.48
2023-04-09T22:35:21.313Z,2.46
2023-04-09T22:37:47.844Z,2.29
2023-04-09T22:40:15.606Z,2.38
2023-04-09T22:42:43.233Z,2.37
2023-04-09T22:45:11.180Z,2.37
2023-04-09T22:47:38.520Z,2.38
2023-04-09T22:50:06.898Z,2.32
2023-04-09T22:52:33.443Z,2.30
2023-04-09T22:54:59.999Z,2.22
2023-04-09T22:57:27.554Z,2.17
2023-04-09T22:59:53.983Z,2.23
2023-04-09T23:02:20.786Z,2.16
2023-04-09T23:04:47.652Z,2.13
2023-04-09T23:07:14.232Z,1.98
2023-04-09T23:09:40.968Z,2.09
2023-04-09T23:12:07.607Z,1.98
2023-04-09T23:14:34.113Z,1.92
2023-04-09T23:17:00.612Z,1.98
2023-04-09T23:19:27.096Z,1.92
2023-04-09T23:21:53.543Z,1.95
2023-04-09T23:24:20.104Z,1.95
2023-04-09T23:26:46.648Z,1.88
2023-04-09T23:29:13.183Z,1.79
2023-04-09T23:31:39.626Z,1.84
2023-04-09T23:34:06.413Z,1.82
2023-04-09T23:36:33.092Z,1.65
2023-04-09T23:38:59.638Z,1.49
2023-04-09T23:41:26.637Z,1.65
2023-04-09T23:43:53.407Z,1.51
2023-04-09T23:46:20.111Z,1.48
2023-04-09T23:48:46.657Z,1.54
2023-04-09T23:51:20.050Z,1.46
2023-04-09T23:53:46.657Z,1.45
2023-04-09T23:56:16.262Z,1.55
2023-04-09T23:58:43.177Z,1.47
